createdAt,value
2016-11-09T00:00:23.605Z,19.1
2016-11-09T00:05:23.253Z,19.06
2016-11-09T00:10:23.512Z,18.97
2016-11-09T00:15:23.441Z,19
2016-11-09T00:20:23.383Z,18.87
2016-11-09T00:25:23.028Z,18.89
2016-11-09T00:30:23.281Z,18.81
2016-11-09T00:35:23.215Z,18.86
2016-11-09T00:40:22.864Z,18.86
2016-11-09T00:45:23.107Z,18.74
2016-11-09T00:50:23.060Z,18.75
2016-11-09T00:55:22.694Z,18.76
2016-11-09T01:00:22.945Z,18.72
2016-11-09T01:05:22.894Z,18.74
2016-11-09T01:10:22.528Z,18.65
2016-11-09T01:15:22.476Z,18.63
2016-11-09T01:20:22.718Z,18.56
2016-11-09T01:25:22.364Z,18.57
2016-11-09T01:30:22.306Z,18.59
2016-11-09T01:35:22.253Z,18.49
2016-11-09T01:40:22.190Z,18.5
2016-11-09T01:45:22.442Z,18.51
2016-11-09T01:50:22.388Z,18.45
2016-11-09T01:55:22.030Z,18.42
2016-11-09T02:00:21.666Z,18.42
2016-11-09T02:05:22.215Z,18.44
2016-11-09T02:10:22.161Z,18.47
2016-11-09T02:15:21.497Z,18.39
2016-11-09T02:20:22.048Z,18.36
2016-11-09T02:25:21.988Z,18.42
2016-11-09T02:30:21.940Z,18.41
2016-11-09T02:35:21.870Z,18.32
2016-11-09T02:40:21.814Z,18.29
2016-11-09T02:45:21.763Z,18.21
2016-11-09T02:50:21.698Z,18.2
2016-11-09T02:55:21.340Z,18.23
2016-11-09T03:00:21.578Z,18.21
2016-11-09T03:05:21.224Z,18.26
2016-11-09T03:10:21.473Z,18.23
2016-11-09T03:15:21.412Z,18.24
2016-11-09T03:20:21.354Z,18.24
2016-11-09T03:25:21.293Z,18.19
2016-11-09T03:30:20.930Z,18.13
2016-11-09T03:35:20.875Z,18.13
2016-11-09T03:40:20.819Z,18.1
2016-11-09T03:45:21.061Z,18.14
2016-11-09T03:50:20.700Z,18.1
2016-11-09T03:55:20.641Z,18.05
2016-11-09T04:00:20.595Z,18.14
2016-11-09T04:05:20.527Z,18.03
2016-11-09T04:10:20.779Z,18.01
2016-11-09T04:15:20.717Z,18.06
2016-11-09T04:20:20.705Z,17.94
2016-11-09T04:25:20.293Z,18.01
2016-11-09T04:30:20.238Z,17.98
2016-11-09T04:35:20.475Z,17.94
2016-11-09T04:40:20.418Z,17.95
2016-11-09T04:45:19.756Z,17.99
2016-11-09T04:50:19.998Z,17.96
2016-11-09T04:55:19.936Z,17.94
2016-11-09T05:00:19.905Z,17.92
2016-11-09T05:05:20.128Z,17.8
2016-11-09T05:10:19.768Z,17.86
2016-11-09T05:15:20.008Z,17.84
2016-11-09T05:20:19.955Z,17.77
2016-11-09T05:25:19.888Z,17.81
2016-11-09T05:30:19.836Z,17.79
2016-11-09T05:35:19.776Z,17.77
2016-11-09T05:40:19.712Z,17.83
2016-11-09T05:45:19.652Z,17.83
2016-11-09T05:50:19.282Z,17.74
2016-11-09T05:55:19.534Z,17.74
2016-11-09T06:00:19.164Z,17.77
2016-11-09T06:05:19.411Z,17.62
2016-11-09T06:10:19.050Z,17.71
2016-11-09T06:15:18.992Z,17.65
2016-11-09T06:20:19.241Z,17.65
2016-11-09T06:25:19.176Z,17.63
2016-11-09T06:30:19.114Z,17.57
2016-11-09T06:35:18.753Z,17.69
2016-11-09T06:40:18.691Z,17.95
2016-11-09T06:45:18.939Z,17.92
2016-11-09T06:50:18.575Z,18.17
2016-11-09T06:55:18.826Z,18.34
2016-11-09T07:00:18.456Z,18.6
2016-11-09T07:05:18.399Z,18.76
2016-11-09T07:10:18.645Z,19
2016-11-09T07:15:18.589Z,19.13
2016-11-09T07:20:18.577Z,19.24
2016-11-09T07:25:18.205Z,19.31
2016-11-09T07:30:18.113Z,19.47
2016-11-09T07:35:18.359Z,19.5
2016-11-09T07:40:18.009Z,19.47
2016-11-09T07:45:18.249Z,19.55
2016-11-09T07:50:17.889Z,19.63
2016-11-09T07:55:18.141Z,19.7
2016-11-09T08:00:18.079Z,19.55
2016-11-09T08:05:17.727Z,19.57
2016-11-09T08:10:17.986Z,19.6
2016-11-09T08:15:17.933Z,19.68
2016-11-09T08:20:17.869Z,19.74
2016-11-09T08:25:17.819Z,19.72
2016-11-09T08:30:17.449Z,19.72
2016-11-09T14:41:56.937Z,19.31
2016-11-09T14:46:56.563Z,19.46
2016-11-09T14:51:56.499Z,19.55
2016-11-09T14:56:56.432Z,19.72
2016-11-09T15:01:56.377Z,19.79
2016-11-09T15:06:56.319Z,19.83
2016-11-09T15:11:56.574Z,19.87
2016-11-09T15:16:56.524Z,19.87
2016-11-09T15:21:56.481Z,19.83
2016-11-09T15:26:56.413Z,19.85
2016-11-09T15:31:56.357Z,19.83
2016-11-09T15:36:56.001Z,19.95
2016-11-09T15:41:55.651Z,20.08
2016-11-09T15:46:56.209Z,20
2016-11-09T15:51:56.157Z,19.92
2016-11-09T15:56:55.835Z,20.05
2016-11-09T16:01:55.756Z,19.82
2016-11-09T16:06:55.411Z,19.87
2016-11-09T16:11:55.965Z,19.85
2016-11-09T16:16:55.605Z,19.85
2016-11-09T16:21:55.559Z,19.83
2016-11-09T16:26:55.507Z,19.86
2016-11-09T16:31:55.761Z,19.82
2016-11-09T16:36:55.403Z,19.82
2016-11-09T16:41:55.361Z,19.83
2016-11-09T16:46:55.624Z,19.83
2016-11-09T16:51:55.564Z,19.8
2016-11-09T16:56:55.521Z,19.72
2016-11-09T17:01:55.157Z,19.71
2016-11-09T17:06:55.407Z,19.67
2016-11-09T17:11:55.359Z,19.64
2016-11-09T17:16:54.999Z,19.56
2016-11-09T17:21:55.257Z,19.85
2016-11-09T17:26:54.896Z,19.95
2016-11-09T17:31:54.533Z,19.97
2016-11-09T17:36:55.104Z,20
2016-11-09T17:41:55.043Z,19.92
2016-11-09T17:46:55.003Z,19.93
2016-11-09T17:51:54.947Z,19.87
2016-11-09T17:56:54.601Z,19.78
2016-11-09T18:01:54.845Z,19.74
2016-11-09T18:06:54.182Z,19.85
2016-11-09T18:11:54.434Z,19.98
2016-11-09T18:16:54.391Z,20
2016-11-09T18:21:54.367Z,20.05
2016-11-09T18:26:54.588Z,20.18
2016-11-09T18:31:54.234Z,20.26
2016-11-09T18:36:54.505Z,20.32
2016-11-09T18:41:54.447Z,20.35
2016-11-09T18:46:54.407Z,20.44
2016-11-09T18:51:54.045Z,20.46
2016-11-09T18:56:54.313Z,20.61
2016-11-09T19:01:54.250Z,20.61
2016-11-09T19:06:54.201Z,20.71
2016-11-09T19:11:53.850Z,20.72
2016-11-09T19:16:54.107Z,20.71
2016-11-09T19:21:53.764Z,20.74
2016-11-09T19:26:53.706Z,20.64
2016-11-09T19:31:53.351Z,20.67
2016-11-09T19:36:53.927Z,20.68
2016-11-09T19:41:53.564Z,20.74
2016-11-09T19:46:53.828Z,20.75
2016-11-09T19:51:53.784Z,20.75
2016-11-09T19:56:53.722Z,20.79
2016-11-09T20:01:53.374Z,20.86
2016-11-09T20:06:53.351Z,20.96
2016-11-09T20:11:52.969Z,20.86
2016-11-09T20:16:53.223Z,20.86
2016-11-09T20:21:53.492Z,20.82
2016-11-09T20:26:53.449Z,20.79
2016-11-09T20:31:53.089Z,20.75
2016-11-09T20:36:53.348Z,20.76
2016-11-09T20:41:52.992Z,20.68
2016-11-09T20:46:53.256Z,20.66
2016-11-09T20:51:52.901Z,20.61
2016-11-09T20:56:52.842Z,20.48
2016-11-09T21:01:52.787Z,20.6
2016-11-09T21:06:53.039Z,20.54
2016-11-09T21:11:52.995Z,20.6
2016-11-09T21:16:52.640Z,20.63
2016-11-09T21:21:52.895Z,20.64
2016-11-09T21:26:52.847Z,20.63
2016-11-09T21:31:52.190Z,20.6
2016-11-09T21:36:52.745Z,20.63
2016-11-09T21:41:52.687Z,20.66
2016-11-09T21:46:52.647Z,20.64
2016-11-09T21:51:52.603Z,20.64
2016-11-09T21:56:52.232Z,20.64
2016-11-09T22:01:52.522Z,20.64
2016-11-09T22:06:52.454Z,20.6
2016-11-09T22:11:52.394Z,20.57
2016-11-09T22:16:52.347Z,20.48
2016-11-09T22:21:52.290Z,20.56
2016-11-09T22:26:52.246Z,20.44
2016-11-09T22:31:51.586Z,20.46
2016-11-09T22:36:52.173Z,20.34
2016-11-09T22:41:52.086Z,20.37
2016-11-09T22:46:52.043Z,20.27
2016-11-09T22:51:51.685Z,20.16
2016-11-09T22:56:51.936Z,20.02
2016-11-09T23:01:51.887Z,20
2016-11-09T23:06:51.831Z,19.82
2016-11-09T23:11:51.787Z,19.85
2016-11-09T23:16:51.731Z,19.78
2016-11-09T23:21:51.374Z,19.7
2016-11-09T23:26:51.627Z,19.61
2016-11-09T23:31:51.579Z,19.67
2016-11-09T23:36:51.227Z,19.55
2016-11-09T23:41:51.175Z,19.46
2016-11-09T23:46:51.429Z,19.4
2016-11-09T23:51:51.369Z,19.32
2016-11-09T23:56:51.015Z,19.32
